ADDS METAR Data INFO
IDs: Format: Raw Decoded Include TAF

Data at: 0213 UTC 17 Aug 2018

PAJC 170157Z AUTO 33004KT 10SM OVC055 12/07 A2999 RMK AO2 SLP155 T01220072
PAJC 170057Z AUTO 34005KT 10SM OVC050 12/07 A2999 RMK AO2 SLP157 T01220072
PAJC 162257Z AUTO 12009KT 10SM BKN036 OVC045 12/05 A3000 RMK AO2 SLP158 T01220050
PAJC 162219Z AUTO 12008KT 10SM SCT029 OVC038 12/07 A2999 RMK AO2
PAJC 162208Z AUTO 18004KT 10SM BKN029 OVC035 12/08 A3000 RMK AO2
PAJC 162157Z AUTO 21004KT 10SM BKN031 BKN035 12/08 A3000 RMK AO2 SLP158 T01170078
PAJC 162059Z AUTO 36007KT 10SM OVC029 12/09 A3000 RMK AO2 SLP158 60001 T01170089 58000
PAJC 162057Z AUTO 01008KT 10SM BKN029 OVC037 12/09 A3000 RMK AO2
PAJC 161957Z AUTO 35007KT 10SM BKN032 BKN040 11/08 A3000 RMK AO2 SLP160 T01110078
PAJC 161857Z AUTO 30003KT 10SM FEW040 SCT049 OVC070 12/08 A3000 RMK AO2 RAE37 SLP158 P0001 T01170078
PAJC 161757Z AUTO 00000KT 4SM -RA BR FEW034 OVC044 09/08 A3000 RMK AO2 RAB00 SLP160 P0003 60003 T00940083 10094 20078 53003
PAJC 161732Z AUTO 00000KT 10SM -RA FEW018 BKN035 OVC045 09/08 A3000 RMK AO2 RAB00 P0001
PAJC 161727Z AUTO 17003KT 10SM -RA FEW018 BKN026 OVC045 09/08 A3000 RMK AO2 RAB00 P0001
PAJC 161657Z AUTO 00000KT 10SM OVC060 09/08 A3000 RMK AO2 SLP159 T00890083
PAJC 161557Z AUTO 00000KT 10SM BKN065 08/07 A2999 RMK AO2 RAE1459 SLP157 P0000 T00830072
PAJC 161511Z AUTO 09003KT 10SM SCT019 OVC065 08/07 A2999 RMK AO2 RAE1459 P0000
PAJC 161442Z AUTO VRB03KT 10SM -RA BKN015 OVC055 08/08 A3000 RMK AO2 RAB13 P0000
PAJC 161419Z AUTO 15003KT 10SM -RA FEW017 BKN050 OVC060 08/07 A3000 RMK AO2 RAB13 P0000
PAJC 161357Z AUTO 00000KT 10SM SCT017 BKN023 OVC065 08/07 A3000 RMK AO2 RAE10 SLP158 P0000 T00830072
PAJC 161353Z AUTO 13004KT 10SM FEW017 BKN023 OVC065 08/07 A3000 RMK AO2 RAE10 P0000
PAJC 161257Z AUTO 00000KT 10SM -RA FEW027 OVC060 09/08 A2999 RMK AO2 SLP157 P0000 T00890083
PAJC 161232Z AUTO 00000KT 10SM -RA SCT028 BKN048 OVC055 09/08 A2999 RMK AO2 P0000
PAJC 161157Z AUTO 00000KT 10SM -RA BKN020 OVC026 09/08 A2999 RMK AO2 SLP157 P0000 60001 70008 T00890083 10106 20089 51001
PAJC 161129Z AUTO 00000KT 10SM -RA BKN018 BKN046 OVC055 09/08 A2999 RMK AO2 P0000
PAJC 161057Z AUTO 00000KT 8SM -RA FEW020 OVC047 09/08 A2999 RMK AO2 RAB0958 SLP157 P0001 T00890083
PAJC 160957Z AUTO 00000KT 10SM OVC020 10/08 A2999 RMK AO2 SLP157 T01000083
PAJC 160859Z AUTO 21003KT 10SM SCT020 OVC028 10/08 A2999 RMK AO2 SLP156 T01000083 51001
PAJC 160857Z AUTO 23004KT 10SM SCT020 OVC028 10/08 A2999 RMK AO2
PAJC 160844Z AUTO 00000KT 10SM SCT020 OVC030 10/08 A2999 RMK AO2
PAJC 160818Z AUTO 21004KT 10SM BKN020 OVC033 10/08 A2999 RMK AO2
PAJC 160757Z AUTO 00000KT 10SM BKN033 OVC040 09/08 A2999 RMK AO2 SLP157 T00940083 401280083
PAJC 160657Z AUTO 22005KT 10SM OVC019 11/08 A2999 RMK AO2 RAE0558 SLP155 T01060083
PAJC 160557Z AUTO 00000KT 10SM -RA OVC017 11/08 A2997 RMK AO2 RAB46 SLP151 P0000 60000 T01060078 10122 20106 53005
PAJC 160457Z AUTO 26007KT 10SM SCT028 BKN041 OVC055 11/08 A2997 RMK AO2
PAJC 160426Z AUTO 35003KT 10SM BKN028 BKN035 OVC045 12/08 A2996 RMK AO2
PAJC 160357Z AUTO 35003KT 10SM BKN030 OVC036 12/08 A2996 RMK AO2 SLP145 T01170083
PAJC 160257Z AUTO 00000KT 10SM OVC037 12/07 A2996 RMK AO2 SLP144 T01220072 56004
PAJC 160157Z AUTO 00000KT 10SM OVC035 12/08 A2996 RMK AO2 SLP145 T01220083
PAJC 160057Z AUTO 32003KT 10SM OVC039 12/08 A2996 RMK AO2 SLP146 T01220078
PAJC 152257Z AUTO 01004KT 10SM OVC037 12/07 A2998 RMK AO2 SLP151 T01170072
PAJC 152057Z AUTO 30003KT 10SM BKN041 OVC049 11/08 A2998 RMK AO2 SLP154 60000 T01110083 55001
PAJC 151957Z AUTO 01004KT 10SM OVC050 11/08 A2998 RMK AO2 SLP153 T01060083
PAJC 151857Z AUTO 00000KT 10SM BKN041 OVC050 10/08 A2998 RMK AO2 RAE10 SLP153 P0000 T01000083
PAJC 151757Z AUTO 02003KT 10SM -RA OVC050 09/08 A2999 RMK AO2 SLP155 P0000 60007 T00940083 10094 20083 55002
PAJC 151657Z AUTO 00000KT 10SM -RA OVC050 09/08 A2998 RMK AO2 SLP154 P0001 T00890078
PAJC 151557Z AUTO 15003KT 10SM -RA OVC046 09/08 A2999 RMK AO2 SLP155 P0001 T00890078
PAJC 151457Z AUTO 00000KT 10SM -RA OVC036 08/08 A2999 RMK AO2 SLP156 P0001 60005 T00830078 58008